Filia Ariea — PIET — position and weather

sailwx.info

Track history (hours):
 
Tides and Currents Weather Stations Pressure Air Temp Water Temp Dewpoint Dewpoint Depression Visibility Wind Speed Wind Dir Waves Ship Positions

Filia Ariea

Last reported at 2017-Jan-19 23:22 UTC. Time now 2017-Jan-20 20:11 UTC.
Position N 52°20' W 005°54'.

Length 90 m; draft 3.2 m.

Type: Cargo ship. MMSI: 244662000.

Date/timePositionNaut miles runAvg speedWind from/ knotsBaromVisibWave heightAir tempDewpointWater temp
2017-Jan-19 23:22N 52°20' W 005°54'62 3.5
2017-Jan-19 05:17N 53°22' W 006°00'8 9.0
2017-Jan-19 04:23N 53°29' W 005°56'1410.9
2017-Jan-19 03:08N 53°42' W 005°48'610.5
2017-Jan-19 02:33N 53°48' W 005°44'1010.3
2017-Jan-19 01:33N 53°58' W 005°38'1010.3
2017-Jan-19 00:33N 54°07' W 005°32'1111.0
2017-Jan-18 23:33N 54°17' W 005°24'1111.1
2017-Jan-18 22:33N 54°28' W 005°20'1111.0
2017-Jan-18 21:33N 54°39' W 005°18'1110.6
2017-Jan-18 20:33N 54°50' W 005°16'1110.0
2017-Jan-18 19:30N 55°00' W 005°13'2311.2
2017-Jan-18 17:29N 55°20' W 004°54'  
2017-Jan-16 08:33N 55°04' W 005°09'10 9.8
2017-Jan-16 07:33N 54°55' W 005°16'1111.4
2017-Jan-16 06:33N 54°44' W 005°19'1212.0
2017-Jan-16 05:33N 54°32' W 005°19'1212.1
2017-Jan-16 04:33N 54°20' W 005°23'  
2017-Jan-13 23:22N 49°57' W 005°07'1011.6
2017-Jan-13 22:31N 49°59' W 004°52'1110.9
2017-Jan-13 21:33N 50°02' W 004°36'11 9.9
2017-Jan-13 20:28N 50°05' W 004°20'8 9.1
2017-Jan-13 19:33N 50°07' W 004°07'8 8.3
2017-Jan-13 18:33N 50°09' W 003°55'17 8.1
2017-Jan-13 16:25N 50°16' W 003°31'911.1
2017-Jan-13 15:33N 50°24' W 003°21'1010.4
2017-Jan-13 14:33N 50°25' W 003°05'45 8.8
2017-Jan-13 09:26N 50°29' W 001°55'27 5.6
2017-Jan-13 04:31N 50°32' W 001°12'10 9.7
2017-Jan-13 03:30N 50°34' W 000°56'9 9.9
2017-Jan-13 02:33N 50°35' W 000°42'9 9.2
2017-Jan-13 01:33N 50°34' W 000°27'8 8.4
2017-Jan-13 00:33N 50°34' W 000°14'7 7.1
2017-Jan-12 23:33N 50°33' W 000°03'6 5.6
2017-Jan-12 22:32N 50°34' E 000°06'4 4.5
2017-Jan-12 21:33N 50°35' E 000°12'4 4.1
2017-Jan-12 20:33N 50°36' E 000°19'5 4.7
2017-Jan-12 19:33N 50°37' E 000°26'7 7.0
2017-Jan-12 18:34N 50°40' E 000°36'9 8.8
2017-Jan-12 17:33N 50°45' E 000°47'12 9.0
2017-Jan-12 16:15N 50°52' E 001°02'6 8.9
2017-Jan-12 15:33N 50°56' E 001°10'9 8.6
2017-Jan-12 14:33N 51°01' E 001°21'8 8.2
2017-Jan-12 13:33N 51°06' E 001°31'7 6.8
2017-Jan-12 12:33N 51°11' E 001°39'7 7.1
2017-Jan-12 11:33N 51°16' E 001°47'9 9.2
2017-Jan-12 10:33N 51°22' E 001°57'8 7.8
2017-Jan-12 09:33N 51°23' E 002°10'9 8.9
2017-Jan-12 08:33N 51°22' E 002°24'10 9.8
2017-Jan-12 07:33N 51°22' E 002°39'9 9.2
2017-Jan-12 06:33N 51°22' E 002°54'1010.1
2017-Jan-12 05:33N 51°23' E 003°10'1111.0
2017-Jan-12 04:31N 51°25' E 003°28'14 6.9
2017-Jan-12 02:32N 51°20' E 003°49'3 3.1
2017-Jan-12 01:33N 51°17' E 003°50'8 7.8
2017-Jan-12 00:32N 51°09' E 003°47'5 4.2
2017-Jan-11 23:26N 51°05' E 003°44'0 0.0
2017-Jan-11 22:29N 51°05' E 003°44'0 0.0
2017-Jan-11 21:28N 51°05' E 003°44'0 0.0
2017-Jan-11 20:25N 51°05' E 003°44'0 0.0
2017-Jan-11 19:27N 51°05' E 003°44'0 0.0
2017-Jan-11 18:24N 51°05' E 003°44'0 0.0
2017-Jan-11 17:30N 51°05' E 003°44'0 0.0
2017-Jan-11 16:26N 51°05' E 003°44'0 0.0
2017-Jan-11 15:29N 51°05' E 003°44'0 0.0
2017-Jan-11 14:28N 51°05' E 003°44'0 0.0
2017-Jan-11 13:28N 51°05' E 003°44'0 0.0
2017-Jan-11 12:24N 51°05' E 003°44'0 0.0
2017-Jan-11 11:27N 51°05' E 003°44'0 0.0
2017-Jan-11 10:26N 51°05' E 003°44'0 0.0
2017-Jan-11 09:26N 51°05' E 003°44'0 0.0
2017-Jan-11 08:29N 51°05' E 003°44'0 0.0
2017-Jan-11 07:28N 51°05' E 003°44'0 0.0
2017-Jan-11 06:28N 51°05' E 003°44'0 0.0
2017-Jan-11 05:27N 51°05' E 003°44'0 0.0
2017-Jan-11 04:30N 51°05' E 003°44'0 0.0
2017-Jan-11 03:33N 51°05' E 003°44'5 4.9
2017-Jan-11 02:31N 51°10' E 003°47'8 7.9
2017-Jan-11 01:33N 51°17' E 003°50'4 3.6
2017-Jan-11 00:33N 51°21' E 003°49'4 4.1
2017-Jan-10 23:31N 51°23' E 003°43'11 9.5
2017-Jan-10 22:23N 51°29' E 003°29'1011.3
2017-Jan-10 21:30N 51°38' E 003°20'1010.5
2017-Jan-10 20:33N 51°47' E 003°15'  
Track history (hours):
 
Tides and Currents Weather Stations Pressure Air Temp Water Temp Dewpoint Dewpoint Depression Visibility Wind Speed Wind Dir Waves Ship Positions

Filia Ariea

Last reported at 2017-Jan-19 23:22 UTC. Time now 2017-Jan-20 20:11 UTC.
Position N 52°20' W 005°54'.

Length 90 m; draft 3.2 m.

Type: Cargo ship. MMSI: 244662000.

Date/timePositionNaut miles runAvg speedWind from/ knotsBaromVisibWave heightAir tempDewpointWater temp
2017-Jan-19 23:22N 52°20' W 005°54'62 3.5
2017-Jan-19 05:17N 53°22' W 006°00'8 9.0
2017-Jan-19 04:23N 53°29' W 005°56'1410.9
2017-Jan-19 03:08N 53°42' W 005°48'610.5
2017-Jan-19 02:33N 53°48' W 005°44'1010.3
2017-Jan-19 01:33N 53°58' W 005°38'1010.3
2017-Jan-19 00:33N 54°07' W 005°32'1111.0
2017-Jan-18 23:33N 54°17' W 005°24'1111.1
2017-Jan-18 22:33N 54°28' W 005°20'1111.0
2017-Jan-18 21:33N 54°39' W 005°18'1110.6
2017-Jan-18 20:33N 54°50' W 005°16'1110.0
2017-Jan-18 19:30N 55°00' W 005°13'2311.2
2017-Jan-18 17:29N 55°20' W 004°54'  
2017-Jan-16 08:33N 55°04' W 005°09'10 9.8
2017-Jan-16 07:33N 54°55' W 005°16'1111.4
2017-Jan-16 06:33N 54°44' W 005°19'1212.0
2017-Jan-16 05:33N 54°32' W 005°19'1212.1
2017-Jan-16 04:33N 54°20' W 005°23'  
2017-Jan-13 23:22N 49°57' W 005°07'1011.6
2017-Jan-13 22:31N 49°59' W 004°52'1110.9
2017-Jan-13 21:33N 50°02' W 004°36'11 9.9
2017-Jan-13 20:28N 50°05' W 004°20'8 9.1
2017-Jan-13 19:33N 50°07' W 004°07'8 8.3
2017-Jan-13 18:33N 50°09' W 003°55'17 8.1
2017-Jan-13 16:25N 50°16' W 003°31'911.1
2017-Jan-13 15:33N 50°24' W 003°21'1010.4
2017-Jan-13 14:33N 50°25' W 003°05'45 8.8
2017-Jan-13 09:26N 50°29' W 001°55'27 5.6
2017-Jan-13 04:31N 50°32' W 001°12'10 9.7
2017-Jan-13 03:30N 50°34' W 000°56'9 9.9
2017-Jan-13 02:33N 50°35' W 000°42'9 9.2
2017-Jan-13 01:33N 50°34' W 000°27'8 8.4
2017-Jan-13 00:33N 50°34' W 000°14'7 7.1
2017-Jan-12 23:33N 50°33' W 000°03'6 5.6
2017-Jan-12 22:32N 50°34' E 000°06'4 4.5
2017-Jan-12 21:33N 50°35' E 000°12'4 4.1
2017-Jan-12 20:33N 50°36' E 000°19'5 4.7
2017-Jan-12 19:33N 50°37' E 000°26'7 7.0
2017-Jan-12 18:34N 50°40' E 000°36'9 8.8
2017-Jan-12 17:33N 50°45' E 000°47'12 9.0
2017-Jan-12 16:15N 50°52' E 001°02'6 8.9
2017-Jan-12 15:33N 50°56' E 001°10'9 8.6
2017-Jan-12 14:33N 51°01' E 001°21'8 8.2
2017-Jan-12 13:33N 51°06' E 001°31'7 6.8
2017-Jan-12 12:33N 51°11' E 001°39'7 7.1
2017-Jan-12 11:33N 51°16' E 001°47'9 9.2
2017-Jan-12 10:33N 51°22' E 001°57'8 7.8
2017-Jan-12 09:33N 51°23' E 002°10'9 8.9
2017-Jan-12 08:33N 51°22' E 002°24'10 9.8
2017-Jan-12 07:33N 51°22' E 002°39'9 9.2
2017-Jan-12 06:33N 51°22' E 002°54'1010.1
2017-Jan-12 05:33N 51°23' E 003°10'1111.0
2017-Jan-12 04:31N 51°25' E 003°28'14 6.9
2017-Jan-12 02:32N 51°20' E 003°49'3 3.1
2017-Jan-12 01:33N 51°17' E 003°50'8 7.8
2017-Jan-12 00:32N 51°09' E 003°47'5 4.2
2017-Jan-11 23:26N 51°05' E 003°44'0 0.0
2017-Jan-11 22:29N 51°05' E 003°44'0 0.0
2017-Jan-11 21:28N 51°05' E 003°44'0 0.0
2017-Jan-11 20:25N 51°05' E 003°44'0 0.0
2017-Jan-11 19:27N 51°05' E 003°44'0 0.0
2017-Jan-11 18:24N 51°05' E 003°44'0 0.0
2017-Jan-11 17:30N 51°05' E 003°44'0 0.0
2017-Jan-11 16:26N 51°05' E 003°44'0 0.0
2017-Jan-11 15:29N 51°05' E 003°44'0 0.0
2017-Jan-11 14:28N 51°05' E 003°44'0 0.0
2017-Jan-11 13:28N 51°05' E 003°44'0 0.0
2017-Jan-11 12:24N 51°05' E 003°44'0 0.0
2017-Jan-11 11:27N 51°05' E 003°44'0 0.0
2017-Jan-11 10:26N 51°05' E 003°44'0 0.0
2017-Jan-11 09:26N 51°05' E 003°44'0 0.0
2017-Jan-11 08:29N 51°05' E 003°44'0 0.0
2017-Jan-11 07:28N 51°05' E 003°44'0 0.0
2017-Jan-11 06:28N 51°05' E 003°44'0 0.0
2017-Jan-11 05:27N 51°05' E 003°44'0 0.0
2017-Jan-11 04:30N 51°05' E 003°44'0 0.0
2017-Jan-11 03:33N 51°05' E 003°44'5 4.9
2017-Jan-11 02:31N 51°10' E 003°47'8 7.9
2017-Jan-11 01:33N 51°17' E 003°50'4 3.6
2017-Jan-11 00:33N 51°21' E 003°49'4 4.1
2017-Jan-10 23:31N 51°23' E 003°43'11 9.5
2017-Jan-10 22:23N 51°29' E 003°29'1011.3
2017-Jan-10 21:30N 51°38' E 003°20'1010.5
2017-Jan-10 20:33N 51°47' E 003°15'  

Dump ship's entire track history